createdAt,value
2019-01-10T00:04:19.983Z,51.20
2019-01-10T00:06:48.787Z,51.80
2019-01-10T00:09:16.707Z,51.90
2019-01-10T00:12:04.063Z,51.40
2019-01-10T00:14:44.575Z,51.40
2019-01-10T00:17:32.030Z,51.20
2019-01-10T00:20:12.391Z,51.10
2019-01-10T00:22:59.812Z,51.60
2019-01-10T00:25:40.443Z,51.30
2019-01-10T00:28:27.941Z,51.40
2019-01-10T00:31:08.739Z,51.50
2019-01-10T00:33:49.091Z,51.50
2019-01-10T00:36:36.679Z,51.10
2019-01-10T00:39:18.058Z,52.80
2019-01-10T00:42:05.509Z,53.10
2019-01-10T00:44:33.754Z,53.20
2019-01-10T00:49:57.083Z,53.50
2019-01-10T00:52:44.509Z,52.70
2019-01-10T00:55:25.105Z,52.60
2019-01-10T00:58:13.096Z,53.30
2019-01-10T01:00:54.224Z,53.30
2019-01-10T01:03:22.353Z,53.20
2019-01-10T01:05:50.294Z,53.30
2019-01-10T01:08:31.293Z,53.20
2019-01-10T01:11:18.679Z,53.50
2019-01-10T01:13:46.629Z,53.40
2019-01-10T01:16:34.227Z,52.80
2019-01-10T01:19:14.817Z,53.30
2019-01-10T01:22:02.253Z,53.20
2019-01-10T01:24:43.298Z,53.40
2019-01-10T01:27:24.273Z,53.60
2019-01-10T01:30:14.160Z,53.80
2019-01-10T01:32:42.126Z,53.60
2019-01-10T01:35:29.705Z,53.80
2019-01-10T01:38:11.495Z,53.40
2019-01-10T01:40:39.431Z,53.10
2019-01-10T01:43:20.104Z,54.00
2019-01-10T01:45:47.988Z,53.80
2019-01-10T01:48:15.946Z,53.80
2019-01-10T01:50:43.801Z,53.80
2019-01-10T01:53:11.728Z,54.00
2019-01-10T01:55:39.600Z,54.10
2019-01-10T01:58:07.507Z,55.00
2019-01-10T02:00:35.674Z,54.90
2019-01-10T02:03:17.060Z,54.20
2019-01-10T02:06:04.411Z,54.60
2019-01-10T02:08:44.931Z,54.30
2019-01-10T02:11:32.278Z,54.60
2019-01-10T02:14:13.180Z,54.90
2019-01-10T02:17:00.606Z,54.30
2019-01-10T02:19:44.611Z,54.00
2019-01-10T02:22:32.404Z,54.00
2019-01-10T02:25:13.389Z,53.90
2019-01-10T02:28:01.118Z,53.70
2019-01-10T02:30:42.076Z,53.10
2019-01-10T02:33:10.296Z,53.20
2019-01-10T02:35:38.203Z,53.30
2019-01-10T02:38:26.460Z,53.40
2019-01-10T02:41:07.086Z,53.00
2019-01-10T02:43:54.497Z,53.10
2019-01-10T02:46:34.689Z,53.20
2019-01-10T02:49:15.558Z,53.30
2019-01-10T02:52:03.479Z,53.10
2019-01-10T02:54:44.107Z,53.10
2019-01-10T02:57:32.453Z,53.00
2019-01-10T03:00:00.382Z,52.70
2019-01-10T03:02:28.355Z,52.50
2019-01-10T03:04:56.392Z,52.50
2019-01-10T03:07:24.340Z,52.70
2019-01-10T03:10:07.241Z,52.90
2019-01-10T03:12:54.595Z,52.90
2019-01-10T03:15:34.945Z,53.00
2019-01-10T03:18:22.512Z,52.80
2019-01-10T03:20:52.621Z,52.80
2019-01-10T03:23:40.046Z,52.70
2019-01-10T03:26:20.150Z,52.60
2019-01-10T03:28:48.032Z,52.80
2019-01-10T03:31:35.406Z,52.60
2019-01-10T03:34:16.488Z,52.60
2019-01-10T03:36:57.253Z,52.60
2019-01-10T03:39:37.338Z,53.30
2019-01-10T03:42:24.833Z,53.50
2019-01-10T03:45:06.718Z,53.50
2019-01-10T03:47:34.700Z,53.70
2019-01-10T03:50:15.988Z,54.00
2019-01-10T03:53:03.347Z,55.10
2019-01-10T03:55:44.189Z,54.60
2019-01-10T03:58:31.573Z,54.00
2019-01-10T04:01:11.827Z,53.50
2019-01-10T04:03:59.179Z,52.90
2019-01-10T04:06:27.108Z,52.60
2019-01-10T04:08:54.997Z,52.50
2019-01-10T04:11:35.169Z,52.40
2019-01-10T04:14:22.755Z,52.20
2019-01-10T04:17:03.450Z,52.10
2019-01-10T04:19:50.832Z,51.30
2019-01-10T04:22:18.846Z,52.20
2019-01-10T04:24:46.846Z,51.80
2019-01-10T04:27:27.270Z,52.10
2019-01-10T04:30:10.600Z,52.60
2019-01-10T04:32:51.538Z,52.70
2019-01-10T04:35:32.766Z,51.90
2019-01-10T04:38:21.029Z,51.40
2019-01-10T04:41:04.125Z,51.00
2019-01-10T04:43:51.567Z,51.00
2019-01-10T04:46:32.526Z,50.00
2019-01-10T04:49:00.450Z,50.70
2019-01-10T04:51:28.471Z,50.60
2019-01-10T04:54:16.377Z,50.20
2019-01-10T04:56:44.257Z,51.30
2019-01-10T04:59:12.369Z,51.90
2019-01-10T05:01:53.319Z,51.60
2019-01-10T05:04:21.265Z,51.30
2019-01-10T05:06:49.383Z,51.90
2019-01-10T05:09:17.221Z,51.10
2019-01-10T05:11:45.120Z,50.70
2019-01-10T05:14:16.651Z,50.70
2019-01-10T05:16:56.924Z,50.50
2019-01-10T05:19:24.814Z,50.60
2019-01-10T05:21:52.773Z,50.50
2019-01-10T05:24:20.594Z,50.20
2019-01-10T05:26:48.570Z,50.30
2019-01-10T05:29:16.649Z,50.10
2019-01-10T05:31:44.495Z,49.90
2019-01-10T05:34:12.402Z,49.70
2019-01-10T05:37:00.060Z,49.50
2019-01-10T05:39:47.464Z,48.90
2019-01-10T05:42:31.352Z,50.20
2019-01-10T05:45:12.103Z,51.40
2019-01-10T05:48:00.528Z,51.60
2019-01-10T05:50:40.911Z,52.20
2019-01-10T05:53:08.827Z,51.30
2019-01-10T05:55:36.831Z,50.90
2019-01-10T05:58:04.750Z,51.20
2019-01-10T06:00:47.262Z,50.90
2019-01-10T06:03:15.311Z,50.70
2019-01-10T06:05:43.276Z,51.30
2019-01-10T06:08:30.831Z,51.40
2019-01-10T06:11:11.180Z,52.30
2019-01-10T06:13:58.560Z,53.50
2019-01-10T06:16:37.592Z,53.50
2019-01-10T06:19:26.872Z,53.50
2019-01-10T06:22:13.613Z,53.80
2019-01-10T06:24:41.631Z,53.70
2019-01-10T06:27:22.365Z,54.00
2019-01-10T06:29:50.378Z,54.60
2019-01-10T06:32:18.287Z,54.80
2019-01-10T06:34:46.243Z,55.20
2019-01-10T06:37:33.615Z,55.30
2019-01-10T06:40:14.865Z,55.10
2019-01-10T06:43:02.268Z,55.00
2019-01-10T06:45:42.509Z,55.60
2019-01-10T06:48:10.408Z,55.00
2019-01-10T06:50:50.565Z,54.80
2019-01-10T06:53:18.503Z,54.30
2019-01-10T06:55:59.046Z,54.40
2019-01-10T06:58:27.006Z,54.80
2019-01-10T07:00:54.906Z,56.00
2019-01-10T07:03:22.873Z,56.50
2019-01-10T07:05:50.994Z,57.30
2019-01-10T07:08:33.907Z,57.50
2019-01-10T07:11:21.333Z,57.80
2019-01-10T07:14:02.413Z,57.90
2019-01-10T07:16:43.004Z,58.00
2019-01-10T07:19:49.992Z,57.60
2019-01-10T07:22:30.012Z,57.50
2019-01-10T07:25:17.616Z,57.30
2019-01-10T07:28:02.927Z,57.00
2019-01-10T07:30:50.835Z,56.90
2019-01-10T07:33:32.298Z,57.40
2019-01-10T07:36:20.154Z,57.40
2019-01-10T07:39:01.249Z,57.20
2019-01-10T07:41:29.313Z,57.00
2019-01-10T07:44:38.268Z,57.30
2019-01-10T07:47:08.198Z,57.10
2019-01-10T07:49:57.557Z,57.30
2019-01-10T07:52:25.535Z,56.70
2019-01-10T07:55:13.276Z,56.60
2019-01-10T07:57:41.294Z,56.50
2019-01-10T08:00:09.594Z,56.20
2019-01-10T08:02:51.151Z,55.70
2019-01-10T08:05:38.628Z,55.20
2019-01-10T08:08:19.054Z,54.10
2019-01-10T08:10:46.978Z,54.60
2019-01-10T08:13:15.068Z,53.90
2019-01-10T08:16:03.240Z,53.40
2019-01-10T08:21:24.222Z,53.20
2019-01-10T08:24:04.845Z,52.80
2019-01-10T08:26:52.365Z,53.10
2019-01-10T08:29:33.594Z,53.00
2019-01-10T08:32:21.146Z,52.90
2019-01-10T08:35:01.635Z,52.00
2019-01-10T08:37:49.068Z,51.40
2019-01-10T08:40:29.501Z,51.70
2019-01-10T08:43:17.021Z,52.30
2019-01-10T08:45:44.967Z,51.90
2019-01-10T08:48:33.184Z,51.60
2019-01-10T08:51:13.880Z,52.10
2019-01-10T08:53:42.095Z,52.00
2019-01-10T08:56:22.659Z,52.00
2019-01-10T08:58:50.646Z,52.20
2019-01-10T09:01:18.582Z,52.00
2019-01-10T09:03:46.586Z,52.30
2019-01-10T09:06:14.624Z,52.70
2019-01-10T09:08:56.696Z,52.90
2019-01-10T09:11:44.111Z,52.70
2019-01-10T09:14:25.783Z,52.60
2019-01-10T09:16:53.808Z,53.30
2019-01-10T09:19:21.826Z,53.80
2019-01-10T09:22:09.274Z,53.30
2019-01-10T09:24:56.729Z,53.80
2019-01-10T09:27:37.863Z,52.80
2019-01-10T09:30:19.612Z,53.50
2019-01-10T09:33:01.339Z,53.00
2019-01-10T09:35:29.361Z,52.70
2019-01-10T09:37:57.337Z,52.30
2019-01-10T09:40:25.404Z,51.70
2019-01-10T09:42:53.391Z,51.30
2019-01-10T09:45:43.502Z,51.40
2019-01-10T09:48:24.588Z,50.90
2019-01-10T09:51:12.016Z,50.90
2019-01-10T09:53:55.798Z,50.30
2019-01-10T09:56:43.443Z,51.00
2019-01-10T09:59:24.145Z,50.20
2019-01-10T10:02:11.599Z,50.00
2019-01-10T10:04:52.296Z,50.20
2019-01-10T10:07:40.017Z,49.00
2019-01-10T10:10:20.784Z,47.60
2019-01-10T10:13:08.303Z,47.50
2019-01-10T10:15:52.624Z,47.90
2019-01-10T10:18:39.795Z,48.90
2019-01-10T10:21:20.568Z,48.50
2019-01-10T10:23:48.825Z,47.60
2019-01-10T10:26:29.958Z,47.30
2019-01-10T10:28:57.976Z,47.40
2019-01-10T10:31:45.556Z,48.00
2019-01-10T10:34:26.036Z,48.00
2019-01-10T10:37:13.523Z,49.40
2019-01-10T10:39:54.819Z,49.60
2019-01-10T10:42:42.456Z,50.60
2019-01-10T10:45:22.868Z,51.40
2019-01-10T10:48:13.565Z,51.80
2019-01-10T10:50:59.478Z,51.70
2019-01-10T10:53:49.519Z,51.20
2019-01-10T10:56:30.827Z,51.50
2019-01-10T10:59:11.226Z,51.10
2019-01-10T11:01:58.713Z,52.00
2019-01-10T11:04:26.763Z,51.90
2019-01-10T11:06:54.783Z,51.40
2019-01-10T11:09:22.827Z,48.80
2019-01-10T11:12:04.827Z,45.60
2019-01-10T11:14:52.764Z,44.20
2019-01-10T11:17:32.948Z,42.40
2019-01-10T11:20:21.932Z,42.40
2019-01-10T11:22:50.085Z,42.60
2019-01-10T11:25:23.059Z,43.20
2019-01-10T11:27:51.056Z,44.00
2019-01-10T11:30:31.828Z,44.00
2019-01-10T11:33:19.185Z,44.70
2019-01-10T11:35:59.899Z,44.40
2019-01-10T11:38:47.436Z,43.60
2019-01-10T11:41:27.686Z,44.20
2019-01-10T11:44:07.890Z,43.90
2019-01-10T11:46:35.858Z,43.80
2019-01-10T11:49:03.857Z,44.00
2019-01-10T11:51:51.379Z,43.00
2019-01-10T11:54:32.764Z,42.00
2019-01-10T11:57:00.758Z,43.20
2019-01-10T11:59:29.556Z,42.60
2019-01-10T12:02:17.213Z,42.90
2019-01-10T12:04:45.164Z,42.70
2019-01-10T12:07:32.557Z,42.20
2019-01-10T12:10:00.726Z,42.30
2019-01-10T12:12:28.667Z,42.50
2019-01-10T12:15:09.436Z,42.50
2019-01-10T12:17:57.075Z,43.20
2019-01-10T12:20:25.099Z,42.30
2019-01-10T12:22:53.059Z,42.70
2019-01-10T12:25:34.869Z,43.10
2019-01-10T12:28:22.541Z,43.30
2019-01-10T12:31:03.198Z,43.40
2019-01-10T12:33:50.905Z,43.10
2019-01-10T12:36:19.729Z,42.20
2019-01-10T12:39:07.449Z,43.00
2019-01-10T12:41:35.496Z,43.10
2019-01-10T12:44:23.084Z,43.40
2019-01-10T12:47:03.516Z,43.50
2019-01-10T12:49:50.981Z,43.00
2019-01-10T12:52:35.230Z,42.60
2019-01-10T12:55:21.172Z,42.80
2019-01-10T12:57:49.123Z,43.20
2019-01-10T13:00:36.732Z,44.10
2019-01-10T13:03:16.793Z,44.40
2019-01-10T13:06:04.371Z,44.00
2019-01-10T13:08:32.410Z,44.10
2019-01-10T13:11:22.057Z,44.00
2019-01-10T13:14:05.522Z,44.50
2019-01-10T13:16:51.477Z,44.90
2019-01-10T13:19:33.252Z,44.50
2019-01-10T13:22:13.911Z,45.20
2019-01-10T13:24:54.078Z,45.30
2019-01-10T13:27:41.497Z,45.90
2019-01-10T13:30:23.197Z,45.10
2019-01-10T13:33:10.916Z,45.30
2019-01-10T13:35:51.802Z,45.30
2019-01-10T13:38:39.413Z,45.20
2019-01-10T13:41:20.177Z,45.40
2019-01-10T13:43:48.134Z,45.30
2019-01-10T13:46:16.183Z,45.40
2019-01-10T13:48:44.300Z,45.30
2019-01-10T13:51:13.273Z,45.30
2019-01-10T13:53:41.347Z,46.00
2019-01-10T13:56:22.735Z,46.40
2019-01-10T13:58:50.723Z,47.10
2019-01-10T14:01:31.670Z,47.50
2019-01-10T14:04:19.333Z,46.70
2019-01-10T14:07:00.280Z,47.20
2019-01-10T14:09:28.388Z,46.90
2019-01-10T14:12:09.477Z,46.40
2019-01-10T14:14:37.614Z,46.50
2019-01-10T14:17:18.496Z,46.80
2019-01-10T14:20:06.451Z,46.40
2019-01-10T14:22:47.308Z,46.20
2019-01-10T14:25:16.176Z,46.30
2019-01-10T14:28:00.235Z,45.20
2019-01-10T14:30:46.714Z,44.30
2019-01-10T14:33:14.807Z,44.30
2019-01-10T14:35:42.874Z,43.10
2019-01-10T14:38:24.283Z,43.20
2019-01-10T14:41:11.928Z,43.00
2019-01-10T14:43:40.104Z,43.00
2019-01-10T14:46:27.646Z,43.10
2019-01-10T14:48:55.581Z,43.20
2019-01-10T14:51:23.756Z,43.00
2019-01-10T14:53:51.719Z,43.50
2019-01-10T14:56:21.718Z,43.90
2019-01-10T14:59:03.903Z,43.30
2019-01-10T15:01:32.342Z,43.30
2019-01-10T15:04:00.364Z,43.00
2019-01-10T15:06:28.390Z,43.10
2019-01-10T15:08:56.484Z,42.50
2019-01-10T15:11:24.584Z,42.80
2019-01-10T15:14:07.220Z,42.40
2019-01-10T15:16:35.211Z,42.90
2019-01-10T15:19:15.872Z,43.00
2019-01-10T15:22:04.592Z,43.20
2019-01-10T15:24:32.602Z,43.40
2019-01-10T15:27:00.701Z,43.40
2019-01-10T15:29:28.619Z,43.70
2019-01-10T15:32:16.299Z,43.80
2019-01-10T15:34:56.486Z,43.60
2019-01-10T15:37:24.476Z,44.20
2019-01-10T15:39:52.767Z,44.00
2019-01-10T15:42:21.166Z,44.70
2019-01-10T15:44:49.517Z,44.80
2019-01-10T15:47:19.870Z,45.00
2019-01-10T15:49:47.571Z,45.10
2019-01-10T15:52:15.743Z,45.20
2019-01-10T15:55:03.955Z,45.30
2019-01-10T15:57:32.108Z,45.20
2019-01-10T16:00:21.181Z,44.40
2019-01-10T16:03:01.840Z,43.90
2019-01-10T16:05:49.415Z,42.60
2019-01-10T16:08:30.806Z,42.80
2019-01-10T16:10:58.704Z,42.50
2019-01-10T16:13:41.214Z,43.20
2019-01-10T16:16:29.011Z,41.60
2019-01-10T16:19:13.131Z,41.40
2019-01-10T16:21:54.269Z,41.60
2019-01-10T16:24:35.736Z,42.40
2019-01-10T16:27:23.678Z,41.60
2019-01-10T16:30:05.965Z,42.40
2019-01-10T16:32:53.579Z,41.80
2019-01-10T16:35:35.642Z,42.00
2019-01-10T16:38:17.009Z,42.00
2019-01-10T16:41:04.406Z,41.40
2019-01-10T16:43:45.053Z,41.10
2019-01-10T16:46:32.514Z,40.90
2019-01-10T16:49:12.988Z,40.90
2019-01-10T16:52:00.661Z,40.50
2019-01-10T16:54:40.989Z,40.80
2019-01-10T16:57:28.467Z,40.20
2019-01-10T17:00:13.028Z,39.70
2019-01-10T17:03:00.716Z,39.80
2019-01-10T17:05:41.220Z,38.80
2019-01-10T17:08:29.023Z,38.70
2019-01-10T17:11:09.444Z,38.00
2019-01-10T17:13:56.952Z,38.90
2019-01-10T17:16:38.412Z,38.50
2019-01-10T17:19:26.228Z,38.50
2019-01-10T17:22:07.301Z,38.40
2019-01-10T17:24:35.720Z,38.90
2019-01-10T17:27:03.741Z,38.50
2019-01-10T17:29:31.966Z,38.40
2019-01-10T17:32:00.378Z,38.30
2019-01-10T17:34:28.792Z,38.50
2019-01-10T17:37:16.271Z,37.70
2019-01-10T17:39:56.671Z,38.00
2019-01-10T17:49:03.313Z,37.10
2019-01-10T17:51:50.958Z,37.20
2019-01-10T17:54:31.191Z,37.80
2019-01-10T17:57:18.654Z,37.20
2019-01-10T17:59:59.486Z,37.50
2019-01-10T18:02:47.220Z,38.30
2019-01-10T18:05:28.312Z,38.80
2019-01-10T18:08:35.617Z,38.80
2019-01-10T18:11:17.143Z,38.90
2019-01-10T18:14:04.772Z,38.70
2019-01-10T18:16:45.287Z,39.00
2019-01-10T18:19:33.180Z,39.40
2019-01-10T18:22:16.118Z,39.10
2019-01-10T18:24:44.391Z,39.20
2019-01-10T18:27:31.956Z,39.00
2019-01-10T18:30:04.045Z,39.20
2019-01-10T18:32:32.388Z,39.00
2019-01-10T18:37:58.487Z,41.00
2019-01-10T18:40:46.114Z,41.10
2019-01-10T18:43:27.203Z,41.90
2019-01-10T18:45:55.198Z,42.20
2019-01-10T18:48:23.332Z,42.70
2019-01-10T18:51:10.797Z,42.70
2019-01-10T18:53:52.202Z,42.50
2019-01-10T18:56:39.933Z,42.50
2019-01-10T18:59:20.807Z,44.10
2019-01-10T19:02:08.428Z,43.00
2019-01-10T19:04:49.499Z,42.60
2019-01-10T19:07:36.941Z,42.80
2019-01-10T19:10:18.198Z,43.00
2019-01-10T19:13:05.981Z,42.80
2019-01-10T19:15:47.078Z,43.00
2019-01-10T19:18:34.667Z,42.50
2019-01-10T19:21:14.791Z,43.00
2019-01-10T19:23:55.206Z,43.20
2019-01-10T19:26:43.194Z,43.20
2019-01-10T19:29:23.381Z,43.10
2019-01-10T19:32:03.637Z,43.30
2019-01-10T19:34:44.769Z,42.70
2019-01-10T19:37:32.296Z,42.90
2019-01-10T19:40:01.060Z,42.40
2019-01-10T19:42:49.243Z,43.10
2019-01-10T19:45:29.563Z,43.20
2019-01-10T19:48:17.212Z,42.90
2019-01-10T19:50:57.375Z,43.40
2019-01-10T19:53:45.161Z,43.40
2019-01-10T19:56:25.678Z,43.50
2019-01-10T19:59:13.418Z,43.20
2019-01-10T20:01:54.423Z,43.00
2019-01-10T20:04:23.495Z,43.30
2019-01-10T20:06:51.657Z,43.30
2019-01-10T20:09:39.263Z,43.90
2019-01-10T20:12:19.520Z,43.60
2019-01-10T20:15:07.279Z,44.60
2019-01-10T20:17:35.626Z,44.30
2019-01-10T20:20:21.426Z,44.60
2019-01-10T20:25:46.740Z,44.60
2019-01-10T20:28:34.517Z,44.50
2019-01-10T20:31:15.083Z,44.90
2019-01-10T20:34:02.835Z,44.60
2019-01-10T20:36:43.738Z,44.40
2019-01-10T20:39:25.059Z,43.90
2019-01-10T20:44:48.928Z,44.80
2019-01-10T20:47:29.719Z,45.20
2019-01-10T20:50:17.815Z,45.30
2019-01-10T20:52:46.001Z,45.80
2019-01-10T20:55:33.595Z,45.60
2019-01-10T20:58:14.306Z,45.60
2019-01-10T21:01:03.342Z,45.50
2019-01-10T21:03:32.631Z,45.50
2019-01-10T21:06:15.619Z,45.30
2019-01-10T21:08:43.658Z,45.90
2019-01-10T21:11:12.730Z,45.90
2019-01-10T21:14:00.247Z,46.40
2019-01-10T21:16:28.441Z,46.70
2019-01-10T21:18:56.534Z,46.40
2019-01-10T21:21:40.504Z,46.70
2019-01-10T21:24:28.128Z,47.70
2019-01-10T21:27:08.844Z,48.20
2019-01-10T21:29:56.662Z,48.50
2019-01-10T21:32:40.844Z,48.40
2019-01-10T21:35:27.135Z,48.30
2019-01-10T21:38:07.413Z,48.00
2019-01-10T21:40:35.621Z,48.20
2019-01-10T21:43:16.588Z,48.60
2019-01-10T21:46:04.407Z,48.70
2019-01-10T21:48:46.827Z,48.90
2019-01-10T21:51:14.934Z,49.20
2019-01-10T21:53:56.490Z,49.40
2019-01-10T21:56:24.695Z,49.30
2019-01-10T21:58:52.827Z,49.20
2019-01-10T22:01:20.836Z,49.90
2019-01-10T22:04:03.489Z,49.70
2019-01-10T22:06:51.490Z,49.30
2019-01-10T22:09:34.223Z,49.00
2019-01-10T22:12:22.256Z,48.90
2019-01-10T22:15:03.798Z,48.80
2019-01-10T22:18:04.156Z,48.60
2019-01-10T22:20:51.827Z,48.70
2019-01-10T22:23:32.275Z,49.20
2019-01-10T22:26:19.855Z,48.80
2019-01-10T22:29:00.921Z,49.00
2019-01-10T22:31:48.580Z,49.30
2019-01-10T22:34:28.955Z,49.40
2019-01-10T22:37:16.559Z,49.80
2019-01-10T22:39:44.596Z,50.20
2019-01-10T22:42:25.890Z,50.30
2019-01-10T22:44:53.890Z,49.80
2019-01-10T22:47:22.032Z,49.50
2019-01-10T22:50:10.825Z,48.00
2019-01-10T22:52:51.551Z,48.40
2019-01-10T22:55:39.332Z,48.00
2019-01-10T22:58:19.899Z,49.00
2019-01-10T23:01:52.356Z,49.40
2019-01-10T23:04:34.469Z,49.10
2019-01-10T23:07:22.688Z,48.10
2019-01-10T23:10:05.422Z,45.40
2019-01-10T23:12:45.875Z,43.60
2019-01-10T23:15:34.527Z,43.80
2019-01-10T23:18:15.126Z,44.30
2019-01-10T23:20:43.223Z,43.50
2019-01-10T23:23:24.264Z,43.40
2019-01-10T23:25:53.821Z,43.00
2019-01-10T23:28:38.223Z,43.10
2019-01-10T23:31:25.697Z,43.30
2019-01-10T23:34:09.571Z,43.20
2019-01-10T23:36:56.981Z,43.80
2019-01-10T23:39:36.005Z,43.80
2019-01-10T23:42:04.035Z,44.20
2019-01-10T23:44:32.222Z,44.40
2019-01-10T23:47:00.140Z,44.70
2019-01-10T23:49:42.004Z,44.00
2019-01-10T23:52:30.070Z,44.70
2019-01-10T23:55:09.625Z,43.80
2019-01-10T23:57:37.750Z,43.90
